Time;durP1;ratioP1;P1;durP2;ratioP2;P2;SDS_P1;SDS_P2;PMS_P1;PMS_P2;Temp;Humidity;BMP_temperature;BMP_pressure;BME280_temperature;BME280_humidity;BME280_pressure;Samples;Min_cycle;Max_cycle;Signal;HPM_P1;HPM_P2
2022/09/03 00:00:13;;;;;;;0.60;0.60;;;;;;;;;;5035892;28;20214;-81
2022/09/03 00:02:44;;;;;;;0.70;0.70;;;;;;;;;;5037913;28;20210;-81
2022/09/03 00:05:19;;;;;;;1.60;0.75;;;;;;;;;;5036407;28;20205;-81
2022/09/03 00:07:55;;;;;;;0.93;0.85;;;;;;;;;;5036079;28;20233;-81
2022/09/03 00:10:28;;;;;;;0.95;0.95;;;;;;;;;;5035299;28;20230;-81
2022/09/03 00:13:00;;;;;;;1.55;0.75;;;;;;;;;;5035844;28;20256;-81
2022/09/03 00:15:30;;;;;;;0.80;0.80;;;;;;;;;;5035930;28;20689;-81
2022/09/03 00:18:03;;;;;;;0.90;0.90;;;;;;;;;;5035654;28;20245;-81
2022/09/03 00:20:36;;;;;;;0.70;0.70;;;;;;;;;;5035455;28;20290;-81
2022/09/03 00:23:06;;;;;;;0.80;0.80;;;;;;;;;;5035186;28;20236;-81
2022/09/03 00:25:41;;;;;;;0.73;0.73;;;;;;;;;;5035125;28;20356;-81
2022/09/03 00:28:13;;;;;;;0.65;0.65;;;;;;;;;;5035054;28;20249;-81
2022/09/03 00:30:43;;;;;;;1.73;1.08;;;;;;;;;;5034711;28;20710;-81
2022/09/03 00:33:17;;;;;;;0.68;0.68;;;;;;;;;;5035643;28;20206;-81
2022/09/03 00:35:49;;;;;;;0.80;0.80;;;;;;;;;;5035135;28;20206;-81
2022/09/03 00:38:17;;;;;;;0.80;0.80;;;;;;;;;;5034790;28;20234;-81
2022/09/03 00:40:58;;;;;;;0.73;0.73;;;;;;;;;;5034601;28;20222;-81
2022/09/03 00:43:38;;;;;;;1.10;1.10;;;;;;;;;;5034945;28;20640;-80
2022/09/03 00:46:18;;;;;;;0.47;0.47;;;;;;;;;;5034858;28;20901;-81
2022/09/03 00:49:05;;;;;;;0.70;0.70;;;;;;;;;;5034638;28;20666;-81
2022/09/03 00:51:37;;;;;;;2.20;0.50;;;;;;;;;;5035744;28;20289;-81
2022/09/03 00:54:10;;;;;;;0.80;0.80;;;;;;;;;;5034751;28;20234;-81
2022/09/03 00:56:44;;;;;;;1.08;0.90;;;;;;;;;;5035496;28;20226;-81
2022/09/03 00:59:27;;;;;;;0.73;0.70;;;;;;;;;;5035320;28;20665;-80
2022/09/03 01:02:08;;;;;;;0.70;0.70;;;;;;;;;;5034566;28;20233;-80
2022/09/03 01:04:48;;;;;;;0.70;0.70;;;;;;;;;;5033659;28;20209;-81
2022/09/03 01:07:24;;;;;;;0.70;0.70;;;;;;;;;;5033904;28;20623;-81
2022/09/03 01:10:00;;;;;;;0.77;0.70;;;;;;;;;;5034760;28;20228;-81
2022/09/03 01:12:37;;;;;;;0.70;0.70;;;;;;;;;;5033636;28;20244;-81
2022/09/03 01:15:11;;;;;;;0.80;0.80;;;;;;;;;;5034343;28;20202;-81
2022/09/03 01:17:55;;;;;;;0.80;0.80;;;;;;;;;;5034538;28;20233;-81
2022/09/03 01:20:38;;;;;;;0.95;0.95;;;;;;;;;;5033957;28;20696;-81
2022/09/03 01:23:48;;;;;;;0.88;0.88;;;;;;;;;;5034826;28;20206;-81
2022/09/03 01:26:43;;;;;;;0.80;0.80;;;;;;;;;;5034692;28;20238;-81
2022/09/03 01:29:21;;;;;;;0.68;0.68;;;;;;;;;;5034921;28;20256;-81
2022/09/03 01:32:00;;;;;;;0.93;0.93;;;;;;;;;;5033969;28;20234;-81
2022/09/03 01:34:40;;;;;;;0.70;0.70;;;;;;;;;;5035165;28;20202;-82
2022/09/03 01:37:16;;;;;;;0.93;0.85;;;;;;;;;;5033033;28;20254;-82
2022/09/03 01:39:56;;;;;;;0.75;0.75;;;;;;;;;;5033857;28;20305;-80
2022/09/03 01:42:32;;;;;;;0.65;0.65;;;;;;;;;;5033382;28;20632;-81
2022/09/03 01:45:34;;;;;;;0.65;0.65;;;;;;;;;;5034174;28;20705;-81
2022/09/03 01:48:19;;;;;;;0.70;0.70;;;;;;;;;;5025091;28;20745;-80
2022/09/03 01:50:51;;;;;;;0.80;0.80;;;;;;;;;;5034471;28;20254;-81
2022/09/03 01:53:34;;;;;;;0.98;0.98;;;;;;;;;;5034323;28;20237;-81
2022/09/03 01:56:19;;;;;;;0.60;0.60;;;;;;;;;;5033798;28;20233;-80
2022/09/03 01:58:53;;;;;;;0.82;0.82;;;;;;;;;;5034372;28;20629;-80
2022/09/03 02:01:28;;;;;;;0.80;0.80;;;;;;;;;;5034007;28;20203;-80
2022/09/03 02:03:58;;;;;;;0.70;0.70;;;;;;;;;;5031322;28;20288;-81
2022/09/03 02:06:26;;;;;;;0.75;0.75;;;;;;;;;;5033875;28;20255;-82
2022/09/03 02:08:54;;;;;;;1.55;1.00;;;;;;;;;;5034118;28;20198;-80
2022/09/03 02:11:21;;;;;;;0.70;0.70;;;;;;;;;;5033560;28;20216;-81
2022/09/03 02:13:52;;;;;;;0.90;0.90;;;;;;;;;;5033793;28;20234;-81
2022/09/03 02:16:24;;;;;;;0.70;0.70;;;;;;;;;;5033393;28;20240;-81
2022/09/03 02:18:54;;;;;;;0.80;0.80;;;;;;;;;;5034202;28;20213;-81
2022/09/03 02:21:27;;;;;;;0.68;0.68;;;;;;;;;;5034387;28;20202;-81
2022/09/03 02:23:54;;;;;;;0.73;0.73;;;;;;;;;;5033803;28;20618;-81
2022/09/03 02:26:24;;;;;;;1.70;1.60;;;;;;;;;;5033526;28;20281;-81
2022/09/03 02:28:53;;;;;;;0.88;0.88;;;;;;;;;;5033767;28;20241;-81
2022/09/03 02:31:22;;;;;;;1.10;1.00;;;;;;;;;;5033355;28;20226;-81
2022/09/03 02:33:50;;;;;;;0.90;0.80;;;;;;;;;;5033462;28;20229;-81
2022/09/03 02:36:26;;;;;;;0.63;0.63;;;;;;;;;;5033922;28;20686;-81
2022/09/03 02:38:54;;;;;;;1.55;0.95;;;;;;;;;;5034542;28;20233;-80
2022/09/03 02:41:22;;;;;;;1.00;1.00;;;;;;;;;;5034887;28;20647;-82
2022/09/03 02:43:53;;;;;;;0.70;0.70;;;;;;;;;;5033875;28;20210;-81
2022/09/03 02:46:26;;;;;;;0.90;0.90;;;;;;;;;;5034091;28;20230;-81
2022/09/03 02:48:54;;;;;;;0.60;0.60;;;;;;;;;;5033043;28;20206;-81
2022/09/03 02:51:21;;;;;;;0.80;0.80;;;;;;;;;;5034015;28;20301;-81
2022/09/03 02:53:49;;;;;;;0.95;0.95;;;;;;;;;;5034028;28;20265;-81
2022/09/03 02:56:16;;;;;;;0.63;0.63;;;;;;;;;;5033541;28;20198;-81
2022/09/03 02:58:44;;;;;;;0.80;0.80;;;;;;;;;;5033784;28;20297;-81
2022/09/03 03:01:11;;;;;;;0.82;0.82;;;;;;;;;;5033023;28;20238;-81
2022/09/03 03:03:40;;;;;;;1.10;0.65;;;;;;;;;;5033124;28;20209;-81
2022/09/03 03:06:07;;;;;;;1.02;1.02;;;;;;;;;;5033244;28;20289;-81
2022/09/03 03:08:35;;;;;;;1.00;1.00;;;;;;;;;;5033520;28;20198;-81
2022/09/03 03:11:03;;;;;;;0.80;0.80;;;;;;;;;;5034015;28;20253;-81
2022/09/03 03:13:31;;;;;;;0.90;0.90;;;;;;;;;;5036953;28;20226;-81
2022/09/03 03:16:00;;;;;;;0.60;0.60;;;;;;;;;;5037149;28;20267;-81
2022/09/03 03:18:28;;;;;;;1.13;1.00;;;;;;;;;;5036706;28;20692;-81
2022/09/03 03:20:56;;;;;;;0.70;0.70;;;;;;;;;;5043271;23;20226;-83
2022/09/03 03:23:24;;;;;;;2.50;1.05;;;;;;;;;;5036944;28;20402;-84
2022/09/03 03:25:52;;;;;;;1.30;1.00;;;;;;;;;;5037540;28;20639;-84
2022/09/03 03:28:19;;;;;;;0.80;0.80;;;;;;;;;;5041867;28;20262;-83
2022/09/03 03:30:47;;;;;;;0.80;0.80;;;;;;;;;;5042174;28;20260;-84
2022/09/03 03:33:15;;;;;;;0.88;0.88;;;;;;;;;;5041063;28;20244;-84
2022/09/03 03:35:42;;;;;;;0.80;0.80;;;;;;;;;;5039626;28;20230;-84
2022/09/03 03:38:11;;;;;;;0.75;0.75;;;;;;;;;;5041498;28;20309;-84
2022/09/03 03:40:39;;;;;;;0.75;0.75;;;;;;;;;;5041114;28;20222;-83
2022/09/03 03:43:06;;;;;;;0.80;0.80;;;;;;;;;;5040949;28;20651;-84
2022/09/03 03:45:34;;;;;;;1.83;1.02;;;;;;;;;;5041562;28;20711;-83
2022/09/03 03:48:01;;;;;;;0.75;0.75;;;;;;;;;;5041138;28;20254;-84
2022/09/03 03:50:29;;;;;;;1.27;1.17;;;;;;;;;;5056105;28;20218;-84
2022/09/03 03:53:00;;;;;;;0.90;0.90;;;;;;;;;;5040998;28;20312;-84
2022/09/03 03:55:29;;;;;;;0.80;0.80;;;;;;;;;;5041003;28;20205;-84
2022/09/03 03:57:58;;;;;;;0.60;0.60;;;;;;;;;;5039591;28;20644;-85
2022/09/03 04:00:26;;;;;;;0.90;0.90;;;;;;;;;;5039101;28;20238;-84
2022/09/03 04:02:53;;;;;;;1.05;1.05;;;;;;;;;;5040186;28;20203;-84
2022/09/03 04:05:21;;;;;;;0.90;0.90;;;;;;;;;;5040299;28;20225;-84
2022/09/03 04:07:48;;;;;;;1.13;1.13;;;;;;;;;;5039801;28;20719;-84
2022/09/03 04:10:16;;;;;;;0.90;0.90;;;;;;;;;;5040741;28;20236;-84
2022/09/03 04:12:45;;;;;;;1.48;0.80;;;;;;;;;;5040590;28;20737;-84
2022/09/03 04:15:12;;;;;;;0.82;0.82;;;;;;;;;;5041318;28;20225;-84
2022/09/03 04:17:40;;;;;;;0.90;0.90;;;;;;;;;;5040732;28;20309;-84
2022/09/03 04:20:08;;;;;;;0.73;0.73;;;;;;;;;;5040465;28;20248;-84
2022/09/03 04:22:35;;;;;;;0.80;0.80;;;;;;;;;;5041067;28;20202;-84
2022/09/03 04:25:03;;;;;;;1.00;1.00;;;;;;;;;;5040247;28;20258;-84
2022/09/03 04:27:31;;;;;;;0.65;0.65;;;;;;;;;;5040353;28;20258;-84
2022/09/03 04:30:00;;;;;;;0.77;0.70;;;;;;;;;;5041748;28;20221;-84
2022/09/03 04:35:14;;;;;;;0.93;0.93;;;;;;;;;;5040573;28;20190;-83
2022/09/03 04:37:41;;;;;;;0.90;0.90;;;;;;;;;;5041222;28;20226;-85
2022/09/03 04:40:10;;;;;;;1.00;1.00;;;;;;;;;;5040100;28;20202;-84
2022/09/03 04:42:38;;;;;;;0.60;0.60;;;;;;;;;;5040635;28;20630;-85
2022/09/03 04:45:08;;;;;;;0.70;0.70;;;;;;;;;;5039938;28;20238;-84
2022/09/03 04:47:36;;;;;;;1.27;0.90;;;;;;;;;;5040965;28;20280;-83
2022/09/03 04:50:05;;;;;;;0.95;0.95;;;;;;;;;;5040946;28;20198;-84
2022/09/03 04:52:32;;;;;;;1.00;1.00;;;;;;;;;;5041816;28;20222;-83
2022/09/03 04:55:01;;;;;;;1.23;1.13;;;;;;;;;;5040203;28;20246;-84
2022/09/03 04:57:33;;;;;;;0.93;0.93;;;;;;;;;;5040182;28;20270;-84
2022/09/03 05:00:00;;;;;;;0.70;0.70;;;;;;;;;;5039976;28;20188;-84
2022/09/03 05:02:29;;;;;;;1.02;0.98;;;;;;;;;;5040010;28;20586;-84
2022/09/03 05:04:57;;;;;;;1.30;1.20;;;;;;;;;;5039060;28;20230;-84
2022/09/03 05:07:28;;;;;;;0.80;0.80;;;;;;;;;;5039319;28;20314;-84
2022/09/03 05:09:57;;;;;;;1.02;0.98;;;;;;;;;;5039010;28;20639;-85
2022/09/03 05:12:25;;;;;;;0.85;0.85;;;;;;;;;;5039565;28;20203;-84
2022/09/03 05:14:53;;;;;;;0.73;0.73;;;;;;;;;;5039170;28;20218;-84
2022/09/03 05:17:21;;;;;;;0.90;0.90;;;;;;;;;;5037942;28;20246;-83
2022/09/03 05:19:50;;;;;;;0.80;0.80;;;;;;;;;;5037463;28;20254;-84
2022/09/03 05:22:20;;;;;;;0.70;0.70;;;;;;;;;;5038359;28;20248;-83
2022/09/03 05:24:47;;;;;;;1.00;0.77;;;;;;;;;;5037920;28;20199;-81
2022/09/03 05:27:15;;;;;;;0.75;0.75;;;;;;;;;;5037594;28;20218;-79
2022/09/03 05:29:44;;;;;;;0.50;0.50;;;;;;;;;;5037965;28;20206;-80
2022/09/03 05:32:12;;;;;;;0.82;0.82;;;;;;;;;;5039128;28;20198;-80
2022/09/03 05:34:40;;;;;;;0.93;0.93;;;;;;;;;;5037614;28;20285;-80
2022/09/03 05:37:09;;;;;;;0.70;0.70;;;;;;;;;;5038575;28;20249;-80
2022/09/03 05:39:36;;;;;;;0.77;0.77;;;;;;;;;;5038634;28;20678;-80
2022/09/03 05:42:04;;;;;;;0.88;0.80;;;;;;;;;;5039399;28;20210;-81
2022/09/03 05:44:32;;;;;;;0.70;0.70;;;;;;;;;;5038890;28;20218;-83
2022/09/03 05:46:59;;;;;;;0.80;0.80;;;;;;;;;;5037233;28;20575;-82
2022/09/03 05:49:27;;;;;;;2.53;0.70;;;;;;;;;;5038317;28;20210;-82
2022/09/03 05:51:54;;;;;;;2.08;0.73;;;;;;;;;;5036739;28;20240;-82
2022/09/03 05:54:23;;;;;;;1.00;1.00;;;;;;;;;;5036191;28;20753;-80
2022/09/03 05:56:51;;;;;;;0.80;0.80;;;;;;;;;;5033756;28;20313;-84
2022/09/03 05:59:18;;;;;;;0.70;0.70;;;;;;;;;;5035388;28;20252;-83
2022/09/03 06:01:48;;;;;;;0.82;0.82;;;;;;;;;;5035348;28;20229;-81
2022/09/03 06:04:17;;;;;;;0.60;0.60;;;;;;;;;;5035845;28;20198;-82
2022/09/03 06:06:46;;;;;;;0.85;0.85;;;;;;;;;;5034688;28;20652;-82
2022/09/03 06:09:16;;;;;;;1.00;0.88;;;;;;;;;;5035620;28;20285;-82
2022/09/03 06:11:49;;;;;;;0.60;0.60;;;;;;;;;;5035199;28;20574;-83
2022/09/03 06:14:17;;;;;;;1.00;0.90;;;;;;;;;;5034516;28;20597;-83
2022/09/03 06:16:48;;;;;;;0.70;0.70;;;;;;;;;;5034910;28;20309;-82
2022/09/03 06:19:16;;;;;;;1.00;1.00;;;;;;;;;;5035576;28;20186;-83
2022/09/03 06:21:47;;;;;;;0.82;0.82;;;;;;;;;;5035868;28;20656;-83
2022/09/03 06:24:17;;;;;;;1.02;1.00;;;;;;;;;;5036556;28;20226;-84
2022/09/03 06:26:46;;;;;;;0.90;0.90;;;;;;;;;;5036489;28;20690;-83
2022/09/03 06:29:14;;;;;;;1.50;0.98;;;;;;;;;;5036189;28;20298;-82
2022/09/03 06:31:42;;;;;;;0.80;0.80;;;;;;;;;;5036421;28;20202;-83
2022/09/03 06:34:09;;;;;;;0.90;0.90;;;;;;;;;;5035939;28;20262;-84
2022/09/03 06:36:37;;;;;;;0.80;0.80;;;;;;;;;;5049917;28;20224;-82
2022/09/03 06:39:04;;;;;;;2.05;1.65;;;;;;;;;;5056013;28;20236;-81
2022/09/03 06:41:34;;;;;;;0.80;0.80;;;;;;;;;;5055604;28;20209;-83
2022/09/03 06:44:05;;;;;;;2.13;1.08;;;;;;;;;;5055895;28;20625;-82
2022/09/03 06:46:37;;;;;;;0.68;0.68;;;;;;;;;;5059754;28;20230;-82
2022/09/03 06:49:05;;;;;;;0.80;0.80;;;;;;;;;;5059959;28;20676;-82
2022/09/03 06:51:33;;;;;;;0.80;0.80;;;;;;;;;;5060031;28;20236;-83
2022/09/03 06:54:03;;;;;;;0.80;0.80;;;;;;;;;;5059059;28;20237;-82
2022/09/03 06:56:31;;;;;;;1.05;1.05;;;;;;;;;;5059477;28;20260;-82
2022/09/03 06:59:04;;;;;;;1.70;1.38;;;;;;;;;;5059004;28;20236;-81
2022/09/03 07:01:33;;;;;;;1.15;0.82;;;;;;;;;;5059065;28;20555;-83
2022/09/03 07:04:03;;;;;;;0.95;0.95;;;;;;;;;;5059712;28;20198;-83
2022/09/03 07:06:35;;;;;;;1.40;0.80;;;;;;;;;;5058747;28;20403;-82
2022/09/03 07:09:04;;;;;;;1.30;1.20;;;;;;;;;;5059174;28;20189;-82
2022/09/03 07:11:32;;;;;;;0.90;0.90;;;;;;;;;;5060083;28;20225;-82
2022/09/03 07:14:02;;;;;;;0.90;0.90;;;;;;;;;;5058793;28;20208;-81
2022/09/03 07:16:32;;;;;;;1.30;1.20;;;;;;;;;;5058788;28;20598;-85
2022/09/03 07:19:02;;;;;;;1.90;1.75;;;;;;;;;;5042320;28;20241;-82
2022/09/03 07:21:32;;;;;;;1.00;0.95;;;;;;;;;;5038963;28;20208;-83
2022/09/03 07:24:01;;;;;;;1.13;1.00;;;;;;;;;;5038449;28;20198;-84
2022/09/03 07:26:31;;;;;;;0.90;0.90;;;;;;;;;;5037863;28;20305;-83
2022/09/03 07:29:00;;;;;;;0.98;0.98;;;;;;;;;;5038417;28;20204;-83
2022/09/03 07:31:31;;;;;;;0.90;0.90;;;;;;;;;;5039308;28;20202;-82
2022/09/03 07:33:58;;;;;;;1.10;1.10;;;;;;;;;;5039424;28;20381;-83
2022/09/03 07:36:28;;;;;;;1.10;1.10;;;;;;;;;;5039215;28;20305;-83
2022/09/03 07:38:58;;;;;;;1.20;1.20;;;;;;;;;;5040824;28;20637;-83
2022/09/03 07:41:26;;;;;;;1.02;1.02;;;;;;;;;;5041064;28;20640;-84
2022/09/03 07:43:55;;;;;;;0.80;0.80;;;;;;;;;;5040564;28;20198;-82
2022/09/03 07:46:25;;;;;;;1.10;1.00;;;;;;;;;;5040688;28;20217;-82
2022/09/03 07:48:56;;;;;;;0.95;0.95;;;;;;;;;;5039452;28;20203;-83
2022/09/03 07:51:26;;;;;;;0.95;0.95;;;;;;;;;;5039542;28;20221;-83
2022/09/03 07:53:57;;;;;;;0.95;0.95;;;;;;;;;;5040038;28;20209;-82
2022/09/03 07:56:25;;;;;;;0.70;0.70;;;;;;;;;;5039444;28;20581;-83
2022/09/03 07:58:54;;;;;;;1.63;1.10;;;;;;;;;;5039196;28;20609;-83
2022/09/03 08:01:24;;;;;;;1.05;1.05;;;;;;;;;;5038482;28;20636;-83
2022/09/03 08:03:54;;;;;;;2.60;1.25;;;;;;;;;;5038329;28;20605;-82
2022/09/03 08:06:24;;;;;;;1.00;0.85;;;;;;;;;;5038032;28;20289;-83
2022/09/03 08:08:57;;;;;;;1.27;1.20;;;;;;;;;;5039023;28;20233;-83
2022/09/03 08:11:26;;;;;;;1.27;1.27;;;;;;;;;;5038586;28;20248;-83
2022/09/03 08:14:01;;;;;;;1.17;1.00;;;;;;;;;;5038504;28;20225;-81
2022/09/03 08:16:30;;;;;;;1.70;1.02;;;;;;;;;;5037378;28;20222;-85
2022/09/03 08:18:59;;;;;;;1.20;1.13;;;;;;;;;;5037155;28;20217;-83
2022/09/03 08:21:28;;;;;;;2.92;1.48;;;;;;;;;;5037244;28;20206;-83
2022/09/03 08:24:01;;;;;;;1.15;1.05;;;;;;;;;;5037290;28;20265;-83
2022/09/03 08:26:31;;;;;;;0.80;0.80;;;;;;;;;;5037087;28;20228;-83
2022/09/03 08:28:59;;;;;;;1.40;1.30;;;;;;;;;;5037664;28;20207;-83
2022/09/03 08:31:28;;;;;;;1.00;0.82;;;;;;;;;;5036476;28;20293;-83
2022/09/03 08:34:00;;;;;;;0.98;0.98;;;;;;;;;;5036302;28;20191;-84
2022/09/03 08:36:30;;;;;;;3.35;1.10;;;;;;;;;;5038005;28;20280;-83
2022/09/03 08:39:02;;;;;;;2.03;1.10;;;;;;;;;;5038952;28;20578;-82
2022/09/03 08:41:41;;;;;;;0.80;0.80;;;;;;;;;;5038089;28;20210;-82
2022/09/03 08:44:22;;;;;;;0.70;0.70;;;;;;;;;;5037931;28;20213;-82
2022/09/03 08:46:55;;;;;;;0.90;0.90;;;;;;;;;;5037272;28;20305;-83
2022/09/03 08:49:34;;;;;;;1.10;1.10;;;;;;;;;;5036840;28;20289;-82
2022/09/03 08:52:05;;;;;;;0.90;0.90;;;;;;;;;;5037585;28;20193;-81
2022/09/03 08:54:33;;;;;;;0.85;0.85;;;;;;;;;;5037927;28;20229;-81
2022/09/03 08:57:03;;;;;;;1.13;1.02;;;;;;;;;;5037179;28;20222;-81
2022/09/03 08:59:32;;;;;;;1.20;1.10;;;;;;;;;;5037791;28;20229;-80
2022/09/03 09:02:10;;;;;;;1.95;1.05;;;;;;;;;;5038437;28;20209;-80
2022/09/03 09:04:54;;;;;;;1.10;1.00;;;;;;;;;;5038340;28;20213;-81
2022/09/03 09:07:31;;;;;;;1.13;1.02;;;;;;;;;;5036948;28;20245;-81
2022/09/03 09:10:03;;;;;;;0.95;0.90;;;;;;;;;;5035541;28;20204;-81
2022/09/03 09:12:39;;;;;;;0.90;0.90;;;;;;;;;;5037185;28;20285;-81
2022/09/03 09:15:13;;;;;;;1.23;0.98;;;;;;;;;;5037519;28;20202;-82
2022/09/03 09:18:10;;;;;;;1.13;1.02;;;;;;;;;;5038193;28;20265;-81
2022/09/03 09:20:44;;;;;;;1.20;0.90;;;;;;;;;;5035125;28;20248;-79
2022/09/03 09:23:15;;;;;;;1.65;0.90;;;;;;;;;;5045117;28;20232;-80
2022/09/03 09:25:48;;;;;;;0.77;0.77;;;;;;;;;;5035872;28;20233;-80
2022/09/03 09:28:20;;;;;;;0.80;0.80;;;;;;;;;;5033553;28;20222;-80
2022/09/03 09:30:56;;;;;;;1.02;1.00;;;;;;;;;;5101737;27;1264918;-82
2022/09/03 09:33:24;;;;;;;2.67;1.30;;;;;;;;;;5131191;28;20294;-82
2022/09/03 09:35:52;;;;;;;1.10;0.80;;;;;;;;;;5131229;28;20198;-82
2022/09/03 09:38:30;;;;;;;1.13;1.00;;;;;;;;;;5131033;28;20739;-82
2022/09/03 09:41:07;;;;;;;7.55;1.20;;;;;;;;;;5130050;27;20419;-82
2022/09/03 09:43:36;;;;;;;0.77;0.77;;;;;;;;;;5130276;28;20286;-81
2022/09/03 09:46:13;;;;;;;0.65;0.65;;;;;;;;;;5130550;28;20675;-82
2022/09/03 09:48:50;;;;;;;0.82;0.82;;;;;;;;;;5130815;28;20202;-82
2022/09/03 09:51:23;;;;;;;1.33;1.27;;;;;;;;;;5130972;27;20218;-83
2022/09/03 09:54:03;;;;;;;0.93;0.93;;;;;;;;;;5110177;28;20278;-80
2022/09/03 09:56:30;;;;;;;0.90;0.90;;;;;;;;;;5109511;28;20196;-80
2022/09/03 09:59:07;;;;;;;0.80;0.80;;;;;;;;;;5109611;28;20200;-82
2022/09/03 10:01:37;;;;;;;1.15;1.13;;;;;;;;;;5109450;28;20306;-82
2022/09/03 10:04:11;;;;;;;1.08;1.00;;;;;;;;;;5109816;28;20202;-82
2022/09/03 10:06:55;;;;;;;1.20;1.10;;;;;;;;;;5110234;28;20276;-82
2022/09/03 10:09:25;;;;;;;0.93;0.93;;;;;;;;;;5110418;28;20255;-81
2022/09/03 10:12:13;;;;;;;1.23;1.13;;;;;;;;;;5109523;28;20660;-82
2022/09/03 10:14:46;;;;;;;4.72;1.05;;;;;;;;;;5109235;28;20695;-80
2022/09/03 10:17:20;;;;;;;0.80;0.80;;;;;;;;;;5109492;28;20204;-82
2022/09/03 10:22:45;;;;;;;0.90;0.90;;;;;;;;;;5118753;28;20265;-83
2022/09/03 10:25:15;;;;;;;1.08;1.08;;;;;;;;;;5129700;28;20222;-82
2022/09/03 10:27:43;;;;;;;0.80;0.80;;;;;;;;;;5129880;28;20647;-82
2022/09/03 10:30:14;;;;;;;1.15;1.05;;;;;;;;;;5129396;27;20799;-81
2022/09/03 10:32:48;;;;;;;0.80;0.80;;;;;;;;;;5129708;28;20199;-82
2022/09/03 10:35:27;;;;;;;1.10;1.10;;;;;;;;;;5129459;28;20214;-81
2022/09/03 10:38:06;;;;;;;0.85;0.85;;;;;;;;;;5129287;28;20761;-82
2022/09/03 10:40:39;;;;;;;0.88;0.88;;;;;;;;;;5125153;27;20215;-81
2022/09/03 10:43:21;;;;;;;0.80;0.80;;;;;;;;;;5115606;28;20290;-80
2022/09/03 10:45:58;;;;;;;1.00;0.85;;;;;;;;;;5115554;28;20760;-80
2022/09/03 10:49:02;;;;;;;1.75;0.90;;;;;;;;;;5115622;28;20789;-79
2022/09/03 10:51:36;;;;;;;1.00;1.00;;;;;;;;;;5115614;28;20223;-79
2022/09/03 10:54:24;;;;;;;0.85;0.85;;;;;;;;;;5115107;28;20215;-80
2022/09/03 10:56:57;;;;;;;1.05;1.05;;;;;;;;;;5114997;28;20663;-79
2022/09/03 10:59:36;;;;;;;1.30;1.23;;;;;;;;;;5115392;28;20298;-81
2022/09/03 11:02:26;;;;;;;1.25;1.20;;;;;;;;;;5115357;28;20594;-80
2022/09/03 11:05:01;;;;;;;0.90;0.90;;;;;;;;;;5115405;28;20586;-79
2022/09/03 11:07:36;;;;;;;1.33;1.08;;;;;;;;;;5115024;28;20286;-80
2022/09/03 11:10:15;;;;;;;1.30;1.30;;;;;;;;;;5115145;28;20493;-80
2022/09/03 11:12:46;;;;;;;0.90;0.90;;;;;;;;;;5115397;28;20290;-79
2022/09/03 11:15:20;;;;;;;0.88;0.88;;;;;;;;;;5115514;28;20287;-80
2022/09/03 11:17:52;;;;;;;0.80;0.80;;;;;;;;;;5114793;28;20203;-78
2022/09/03 11:20:24;;;;;;;0.93;0.93;;;;;;;;;;5115377;28;20294;-80
2022/09/03 11:22:55;;;;;;;1.13;1.02;;;;;;;;;;5114398;28;20294;-80
2022/09/03 11:25:27;;;;;;;0.90;0.90;;;;;;;;;;5114708;28;20195;-80
2022/09/03 11:28:07;;;;;;;0.93;0.82;;;;;;;;;;5114788;28;20645;-78
2022/09/03 11:30:48;;;;;;;0.80;0.80;;;;;;;;;;5114533;28;20251;-78
2022/09/03 11:33:19;;;;;;;2.15;0.90;;;;;;;;;;5114709;28;20203;-79
2022/09/03 11:35:59;;;;;;;1.08;1.00;;;;;;;;;;5114445;28;20235;-79
2022/09/03 11:38:30;;;;;;;0.90;0.90;;;;;;;;;;5114263;28;20202;-79
2022/09/03 11:41:04;;;;;;;0.70;0.70;;;;;;;;;;5114579;28;20311;-79
2022/09/03 11:43:33;;;;;;;0.60;0.60;;;;;;;;;;5114513;28;20286;-78
2022/09/03 11:46:10;;;;;;;1.17;1.08;;;;;;;;;;5114049;28;20196;-79
2022/09/03 11:48:43;;;;;;;0.90;0.90;;;;;;;;;;5113904;28;20663;-80
2022/09/03 11:51:31;;;;;;;0.70;0.70;;;;;;;;;;5114028;28;20880;-80
2022/09/03 11:54:01;;;;;;;1.40;1.30;;;;;;;;;;5092953;28;20204;-79
2022/09/03 11:56:29;;;;;;;1.02;0.88;;;;;;;;;;5093451;28;20235;-79
2022/09/03 11:59:19;;;;;;;1.08;0.85;;;;;;;;;;5093752;28;20211;-79
2022/09/03 12:01:52;;;;;;;1.00;1.00;;;;;;;;;;5093395;28;20221;-79
2022/09/03 12:04:21;;;;;;;1.20;1.10;;;;;;;;;;5093829;28;20204;-79
2022/09/03 12:07:17;;;;;;;0.75;0.75;;;;;;;;;;5093220;28;20204;-79
2022/09/03 12:10:19;;;;;;;1.17;1.02;;;;;;;;;;5093091;28;20203;-79
2022/09/03 12:12:58;;;;;;;0.70;0.70;;;;;;;;;;5087251;28;20204;-79
2022/09/03 12:15:46;;;;;;;0.80;0.80;;;;;;;;;;5093165;28;20295;-78
2022/09/03 12:18:21;;;;;;;2.90;1.20;;;;;;;;;;5093161;28;20291;-79
2022/09/03 12:21:01;;;;;;;0.88;0.73;;;;;;;;;;5092821;28;20216;-79
2022/09/03 12:23:33;;;;;;;1.42;1.35;;;;;;;;;;5110782;28;20288;-79
2022/09/03 12:26:06;;;;;;;0.93;0.90;;;;;;;;;;5113847;28;20200;-78
2022/09/03 12:28:36;;;;;;;2.55;1.02;;;;;;;;;;5113076;28;20203;-79
2022/09/03 12:31:19;;;;;;;1.10;1.00;;;;;;;;;;5113188;28;20318;-77
2022/09/03 12:33:50;;;;;;;0.93;0.90;;;;;;;;;;5113156;28;20710;-79
2022/09/03 12:36:18;;;;;;;0.93;0.90;;;;;;;;;;5113241;28;20211;-78
2022/09/03 12:38:47;;;;;;;1.20;0.98;;;;;;;;;;5112744;28;20235;-79
2022/09/03 12:41:25;;;;;;;0.88;0.88;;;;;;;;;;5113171;28;20220;-79
2022/09/03 12:43:54;;;;;;;0.82;0.82;;;;;;;;;;5113432;28;20199;-79
2022/09/03 12:46:26;;;;;;;0.80;0.80;;;;;;;;;;5113050;28;20825;-81
2022/09/03 12:49:02;;;;;;;0.80;0.80;;;;;;;;;;5113347;28;20291;-80
2022/09/03 12:51:34;;;;;;;1.20;1.10;;;;;;;;;;5112390;28;20944;-81
2022/09/03 12:54:04;;;;;;;1.15;1.10;;;;;;;;;;5103014;28;20195;-80
2022/09/03 12:56:34;;;;;;;0.88;0.88;;;;;;;;;;5113002;28;20579;-79
2022/09/03 12:59:07;;;;;;;1.30;1.20;;;;;;;;;;5112662;28;20284;-79
2022/09/03 13:01:39;;;;;;;0.60;0.60;;;;;;;;;;5112927;28;20303;-77
2022/09/03 13:04:11;;;;;;;0.80;0.80;;;;;;;;;;5112795;28;20569;-78
2022/09/03 13:06:49;;;;;;;0.75;0.75;;;;;;;;;;5112886;28;20290;-78
2022/09/03 13:09:21;;;;;;;0.80;0.80;;;;;;;;;;5113148;28;20203;-78
2022/09/03 13:11:51;;;;;;;1.38;1.08;;;;;;;;;;5112975;28;20315;-80
2022/09/03 13:14:19;;;;;;;0.90;0.90;;;;;;;;;;5112816;28;20210;-79
2022/09/03 13:17:08;;;;;;;1.42;1.10;;;;;;;;;;5112460;28;20203;-77
2022/09/03 13:19:48;;;;;;;1.67;1.45;;;;;;;;;;5113464;28;20298;-77
2022/09/03 13:22:25;;;;;;;1.45;1.35;;;;;;;;;;5112728;28;20229;-78
2022/09/03 13:25:08;;;;;;;2.83;0.93;;;;;;;;;;5113003;28;20256;-78
2022/09/03 13:27:43;;;;;;;0.98;0.98;;;;;;;;;;5112719;28;20277;-79
2022/09/03 13:30:12;;;;;;;1.00;1.00;;;;;;;;;;5112562;28;20749;-79
2022/09/03 13:32:50;;;;;;;2.17;1.40;;;;;;;;;;5112924;28;20337;-78
2022/09/03 13:35:28;;;;;;;1.35;1.20;;;;;;;;;;5112921;28;20282;-79
2022/09/03 13:38:00;;;;;;;2.08;1.13;;;;;;;;;;5112622;28;20290;-79
2022/09/03 13:40:37;;;;;;;0.85;0.85;;;;;;;;;;5112765;28;20306;-79
2022/09/03 13:43:25;;;;;;;1.10;1.10;;;;;;;;;;5112951;28;20195;-81
2022/09/03 13:45:57;;;;;;;1.48;1.20;;;;;;;;;;5112562;28;20658;-79
2022/09/03 13:51:22;;;;;;;0.80;0.80;;;;;;;;;;5112881;28;20296;-80
2022/09/03 13:54:00;;;;;;;1.15;1.15;;;;;;;;;;5112864;28;20290;-80
2022/09/03 13:56:42;;;;;;;1.40;1.30;;;;;;;;;;5112124;28;20234;-81
2022/09/03 13:59:17;;;;;;;1.48;1.00;;;;;;;;;;5112059;28;20210;-80
2022/09/03 14:02:02;;;;;;;1.08;0.98;;;;;;;;;;5112534;28;20254;-81
2022/09/03 14:04:44;;;;;;;1.17;1.10;;;;;;;;;;5112266;28;20210;-80
2022/09/03 14:07:21;;;;;;;0.90;0.90;;;;;;;;;;5112034;28;20231;-78
2022/09/03 14:09:58;;;;;;;1.17;1.10;;;;;;;;;;5112348;28;20722;-80
2022/09/03 14:12:43;;;;;;;1.58;1.20;;;;;;;;;;5112395;28;20225;-79
2022/09/03 14:15:19;;;;;;;1.27;1.17;;;;;;;;;;5112167;28;20578;-81
2022/09/03 14:17:52;;;;;;;1.27;1.17;;;;;;;;;;5115838;28;20227;-80
2022/09/03 14:20:23;;;;;;;0.90;0.90;;;;;;;;;;5116209;28;20219;-80
2022/09/03 14:22:56;;;;;;;2.25;1.10;;;;;;;;;;5116273;28;20200;-81
2022/09/03 14:25:25;;;;;;;1.30;1.20;;;;;;;;;;5115962;28;20742;-81
2022/09/03 14:27:55;;;;;;;5.13;1.17;;;;;;;;;;5115879;28;20294;-82
2022/09/03 14:30:38;;;;;;;0.95;0.95;;;;;;;;;;5115879;28;20318;-82
2022/09/03 14:33:13;;;;;;;0.90;0.90;;;;;;;;;;5115866;28;20224;-80
2022/09/03 14:35:54;;;;;;;0.80;0.80;;;;;;;;;;5115837;28;20574;-77
2022/09/03 14:38:38;;;;;;;0.88;0.88;;;;;;;;;;5115377;28;20290;-77
2022/09/03 14:41:19;;;;;;;0.82;0.82;;;;;;;;;;5096737;28;20299;-80
2022/09/03 14:44:16;;;;;;;1.58;0.90;;;;;;;;;;5095219;28;20202;-83
2022/09/03 14:47:00;;;;;;;1.50;1.20;;;;;;;;;;5087837;28;20299;-80
2022/09/03 14:49:57;;;;;;;1.02;0.93;;;;;;;;;;5095648;28;20208;-79
2022/09/03 14:52:58;;;;;;;1.55;1.05;;;;;;;;;;5104047;28;20633;-79
2022/09/03 14:56:03;;;;;;;0.93;0.93;;;;;;;;;;5115259;28;20202;-82
2022/09/03 14:58:44;;;;;;;1.75;1.20;;;;;;;;;;5115053;28;20824;-78
2022/09/03 15:01:16;;;;;;;1.02;1.00;;;;;;;;;;5115235;28;20309;-79
2022/09/03 15:04:05;;;;;;;1.13;1.02;;;;;;;;;;5115018;28;20290;-78
2022/09/03 15:06:44;;;;;;;0.90;0.90;;;;;;;;;;5115214;28;20595;-84
2022/09/03 15:09:32;;;;;;;0.80;0.80;;;;;;;;;;5115142;28;20291;-78
2022/09/03 15:12:06;;;;;;;0.88;0.88;;;;;;;;;;5119484;28;20714;-78
2022/09/03 15:14:41;;;;;;;0.90;0.90;;;;;;;;;;5114893;28;20298;-78
2022/09/03 15:17:36;;;;;;;0.77;0.77;;;;;;;;;;5114813;28;20294;-78
2022/09/03 15:20:30;;;;;;;0.80;0.80;;;;;;;;;;5114427;28;20298;-79
2022/09/03 15:23:18;;;;;;;0.73;0.73;;;;;;;;;;5114466;28;20203;-78
2022/09/03 15:26:32;;;;;;;1.10;1.00;;;;;;;;;;5114640;28;20196;-78
2022/09/03 15:29:12;;;;;;;0.98;0.98;;;;;;;;;;5032852;28;20771;-79